createdAt,value
2023-07-25T00:00:03.490Z,92952.50
2023-07-25T00:02:31.718Z,92951.38
2023-07-25T00:05:00.319Z,92959.34
2023-07-25T00:07:29.043Z,92955.16
2023-07-25T00:09:58.170Z,92947.56
2023-07-25T00:12:27.100Z,92957.09
2023-07-25T00:14:56.363Z,92956.31
2023-07-25T00:17:25.003Z,92958.59
2023-07-25T00:19:53.658Z,92958.94
2023-07-25T00:22:22.557Z,92953.22
2023-07-25T00:24:51.299Z,92944.50
2023-07-25T00:27:19.984Z,92950.97
2023-07-25T00:29:49.874Z,92934.22
2023-07-25T00:32:18.538Z,92931.94
2023-07-25T00:34:47.184Z,92926.97
2023-07-25T00:37:15.836Z,92936.09
2023-07-25T00:39:44.414Z,92941.84
2023-07-25T00:42:12.851Z,92936.03
2023-07-25T00:44:41.451Z,92926.53
2023-07-25T00:47:10.093Z,92923.91
2023-07-25T00:49:38.718Z,92918.59
2023-07-25T00:52:07.782Z,92916.34
2023-07-25T00:54:36.480Z,92923.56
2023-07-25T00:57:05.200Z,92906.44
2023-07-25T00:59:33.885Z,92912.91
2023-07-25T01:02:02.821Z,92905.59
2023-07-25T01:04:31.499Z,92897.19
2023-07-25T01:07:02.501Z,92901.25
2023-07-25T01:09:48.755Z,92886.00
2023-07-25T01:12:17.388Z,92880.97
2023-07-25T01:14:46.439Z,92876.78
2023-07-25T01:17:21.177Z,92871.47
2023-07-25T01:19:51.106Z,92871.03
2023-07-25T01:22:21.262Z,92867.97
2023-07-25T01:24:50.653Z,92880.13
2023-07-25T01:27:19.564Z,92873.63
2023-07-25T01:29:48.316Z,92870.63
2023-07-25T01:32:16.980Z,92869.69
2023-07-25T01:34:45.620Z,92868.22
2023-07-25T01:37:14.589Z,92853.34
2023-07-25T01:39:45.074Z,92844.59
2023-07-25T01:42:13.780Z,92855.91
2023-07-25T01:44:42.413Z,92849.19
2023-07-25T01:47:11.564Z,92842.34
2023-07-25T01:49:40.055Z,92850.03
2023-07-25T01:52:09.348Z,92844.69
2023-07-25T01:54:38.009Z,92846.31
2023-07-25T01:57:07.011Z,92843.66
2023-07-25T01:59:35.514Z,92839.47
2023-07-25T02:02:04.326Z,92829.97
2023-07-25T02:04:32.981Z,92824.28
2023-07-25T02:07:01.599Z,92826.13
2023-07-25T02:09:30.310Z,92822.28
2023-07-25T02:12:01.014Z,92809.31
2023-07-25T02:14:29.750Z,92807.31
2023-07-25T02:16:58.356Z,92797.06
2023-07-25T02:19:27.015Z,92791.72
2023-07-25T02:21:55.629Z,92788.53
2023-07-25T02:24:24.447Z,92776.44
2023-07-25T02:26:53.021Z,92763.09
2023-07-25T02:29:21.759Z,92765.66
2023-07-25T02:31:50.392Z,92762.59
2023-07-25T02:34:19.082Z,92764.78
2023-07-25T02:36:47.697Z,92762.41
2023-07-25T02:39:16.344Z,92759.44
2023-07-25T02:41:44.982Z,92756.75
2023-07-25T02:44:13.659Z,92753.94
2023-07-25T02:46:42.296Z,92747.16
2023-07-25T02:49:10.869Z,92741.75
2023-07-25T02:51:39.561Z,92754.59
2023-07-25T02:54:08.244Z,92748.88
2023-07-25T02:56:36.718Z,92755.66
2023-07-25T02:59:05.346Z,92751.09
2023-07-25T03:01:34.201Z,92748.06
2023-07-25T03:04:03.416Z,92751.38
2023-07-25T03:06:32.016Z,92751.28
2023-07-25T03:09:00.569Z,92737.19
2023-07-25T03:11:29.464Z,92736.41
2023-07-25T03:13:58.489Z,92734.75
2023-07-25T03:16:27.313Z,92731.75
2023-07-25T03:18:56.003Z,92732.81
2023-07-25T03:21:25.740Z,92722.94
2023-07-25T03:23:54.337Z,92719.91
2023-07-25T03:26:23.025Z,92702.88
2023-07-25T03:28:51.667Z,92705.81
2023-07-25T03:31:20.259Z,92709.97
2023-07-25T03:33:48.736Z,92711.03
2023-07-25T03:36:17.403Z,92716.28
2023-07-25T03:38:46.043Z,92705.66
2023-07-25T03:41:14.901Z,92691.19
2023-07-25T03:43:43.615Z,92692.25
2023-07-25T03:46:12.228Z,92679.69
2023-07-25T03:48:41.887Z,92681.09
2023-07-25T03:51:10.455Z,92674.91
2023-07-25T03:53:39.134Z,92679.44
2023-07-25T03:56:07.767Z,92667.97
2023-07-25T03:58:36.366Z,92651.31
2023-07-25T04:01:05.039Z,92615.69
2023-07-25T04:03:33.708Z,92597.47
2023-07-25T04:06:02.446Z,92579.22
2023-07-25T04:08:31.189Z,92582.16
2023-07-25T04:10:59.882Z,92577.25
2023-07-25T04:13:27.851Z,92579.88
2023-07-25T04:15:56.629Z,92596.16
2023-07-25T04:18:25.274Z,92599.88
2023-07-25T04:20:54.476Z,92609.28
2023-07-25T04:23:24.562Z,92610.78
2023-07-25T04:25:53.216Z,92602.44
2023-07-25T04:28:21.858Z,92599.38
2023-07-25T04:30:50.593Z,92594.41
2023-07-25T04:33:19.236Z,92578.88
2023-07-25T04:35:48.012Z,92560.63
2023-07-25T04:38:17.237Z,92553.34
2023-07-25T04:40:46.446Z,92544.16
2023-07-25T04:43:15.097Z,92537.75
2023-07-25T04:45:44.000Z,92519.13
2023-07-25T04:48:12.703Z,92497.13
2023-07-25T04:50:41.403Z,92502.28
2023-07-25T04:53:10.075Z,92516.22
2023-07-25T04:55:38.674Z,92523.03
2023-07-25T04:58:07.295Z,92510.13
2023-07-25T05:00:35.951Z,92515.81
2023-07-25T05:03:04.682Z,92508.94
2023-07-25T05:05:33.332Z,92523.31
2023-07-25T05:08:02.084Z,92533.84
2023-07-25T05:10:30.731Z,92531.63
2023-07-25T05:12:59.442Z,92524.00
2023-07-25T05:15:28.085Z,92530.03
2023-07-25T05:17:56.715Z,92525.56
2023-07-25T05:20:25.424Z,92521.03
2023-07-25T05:22:54.462Z,92533.84
2023-07-25T05:25:23.122Z,92529.38
2023-07-25T05:27:51.842Z,92517.63
2023-07-25T05:30:20.466Z,92521.41
2023-07-25T05:32:52.203Z,92521.28
2023-07-25T05:35:20.836Z,92528.16
2023-07-25T05:37:49.453Z,92520.63
2023-07-25T05:40:18.160Z,92508.53
2023-07-25T05:42:46.758Z,92533.38
2023-07-25T05:45:15.699Z,92660.88
2023-07-25T05:47:44.555Z,92770.31
2023-07-25T05:50:14.030Z,92763.06
2023-07-25T05:52:42.688Z,92760.16
2023-07-25T05:55:11.465Z,92772.63
2023-07-25T05:57:40.116Z,92829.28
2023-07-25T06:00:09.354Z,92851.16
2023-07-25T06:02:38.139Z,92866.31
2023-07-25T06:05:07.273Z,92858.72
2023-07-25T06:07:35.922Z,92845.75
2023-07-25T06:10:04.841Z,92881.72
2023-07-25T06:12:33.748Z,92918.72
2023-07-25T06:15:02.433Z,92921.09
2023-07-25T06:17:31.196Z,92908.53
2023-07-25T06:19:59.869Z,92919.34
2023-07-25T06:22:28.942Z,92938.63
2023-07-25T06:24:57.783Z,92914.28
2023-07-25T06:27:27.021Z,92892.59
2023-07-25T06:29:55.946Z,92890.91
2023-07-25T06:32:25.464Z,92914.47
2023-07-25T06:34:54.247Z,92902.34
2023-07-25T06:37:23.049Z,92896.94
2023-07-25T06:39:51.728Z,92882.28
2023-07-25T06:42:20.503Z,92884.41
2023-07-25T06:44:48.557Z,92871.94
2023-07-25T06:47:17.201Z,92871.28
2023-07-25T06:49:45.856Z,92853.25
2023-07-25T06:52:14.575Z,92847.25
2023-07-25T06:54:46.518Z,92868.88
2023-07-25T06:57:15.277Z,92875.84
2023-07-25T06:59:43.995Z,92869.53
2023-07-25T07:02:12.016Z,92863.97
2023-07-25T07:04:40.791Z,92848.72
2023-07-25T07:07:09.526Z,92840.00
2023-07-25T07:09:38.191Z,92826.88
2023-07-25T07:12:07.451Z,92798.59
2023-07-25T07:14:36.164Z,92790.69
2023-07-25T07:17:05.330Z,92811.91
2023-07-25T07:19:34.079Z,92823.03
2023-07-25T07:22:03.477Z,92790.69
2023-07-25T07:24:32.303Z,92763.66
2023-07-25T07:27:00.979Z,92768.06
2023-07-25T07:29:31.710Z,92777.31
2023-07-25T07:32:02.385Z,92754.00
2023-07-25T07:34:31.832Z,92741.38
2023-07-25T07:37:00.807Z,92765.53
2023-07-25T07:39:29.660Z,92754.94
2023-07-25T07:41:58.507Z,92774.94
2023-07-25T07:44:27.164Z,92775.38
2023-07-25T07:46:55.898Z,92772.00
2023-07-25T07:49:24.696Z,92778.47
2023-07-25T07:52:10.305Z,92771.81
2023-07-25T07:54:42.876Z,92778.16
2023-07-25T07:57:11.562Z,92760.94
2023-07-25T07:59:40.454Z,92753.88
2023-07-25T08:02:09.198Z,92754.06
2023-07-25T08:04:38.302Z,92758.53
2023-07-25T08:07:07.179Z,92777.84
2023-07-25T08:09:36.129Z,92788.66
2023-07-25T08:12:06.017Z,92783.13
2023-07-25T08:14:34.678Z,92783.78
2023-07-25T08:17:03.482Z,92785.16
2023-07-25T08:19:32.287Z,92778.75
2023-07-25T08:22:01.537Z,92780.94
2023-07-25T08:24:30.327Z,92798.38
2023-07-25T08:26:59.024Z,92795.28
2023-07-25T08:29:28.680Z,92804.09
2023-07-25T08:31:57.454Z,92808.28
2023-07-25T08:34:26.281Z,92804.00
2023-07-25T08:36:54.930Z,92807.41
2023-07-25T08:39:23.653Z,92814.22
2023-07-25T08:41:56.390Z,92817.16
2023-07-25T08:44:27.556Z,92815.19
2023-07-25T08:46:58.943Z,92832.28
2023-07-25T08:49:33.358Z,92828.13
2023-07-25T08:52:05.420Z,92827.06
2023-07-25T08:54:39.451Z,92827.06
2023-07-25T08:57:09.484Z,92829.06
2023-07-25T08:59:38.447Z,92827.38
2023-07-25T09:02:08.913Z,92832.16
2023-07-25T09:04:38.154Z,92824.16
2023-07-25T09:07:08.593Z,92828.78
2023-07-25T09:09:37.227Z,92833.38
2023-07-25T09:12:06.753Z,92843.38
2023-07-25T09:14:35.673Z,92852.63
2023-07-25T09:17:04.236Z,92864.63
2023-07-25T09:19:34.207Z,92873.53
2023-07-25T09:22:04.352Z,92878.94
2023-07-25T09:24:40.959Z,92895.84
2023-07-25T09:27:19.773Z,92898.59
2023-07-25T09:29:51.984Z,92894.75
2023-07-25T09:32:26.600Z,92890.44
2023-07-25T09:35:03.383Z,92894.25
2023-07-25T09:37:32.134Z,92891.00
2023-07-25T09:40:01.156Z,92904.06
2023-07-25T09:42:29.748Z,92901.41
2023-07-25T09:44:59.284Z,92896.78
2023-07-25T09:47:30.542Z,92903.56
2023-07-25T09:49:59.503Z,92913.25
2023-07-25T09:52:28.458Z,92924.16
2023-07-25T09:54:57.469Z,92935.84
2023-07-25T09:57:26.423Z,92934.31
2023-07-25T09:59:56.621Z,92936.78
2023-07-25T10:02:27.368Z,92925.59
2023-07-25T10:04:59.592Z,92925.00
2023-07-25T10:07:28.555Z,92924.56
2023-07-25T10:09:59.953Z,92927.94
2023-07-25T10:12:28.588Z,92925.03
2023-07-25T10:14:58.540Z,92924.38
2023-07-25T10:17:27.811Z,92924.25
2023-07-25T10:19:57.270Z,92918.84
2023-07-25T10:22:44.702Z,92914.69
2023-07-25T10:25:32.709Z,92913.31
2023-07-25T10:28:01.620Z,92920.22
2023-07-25T10:30:32.250Z,92923.72
2023-07-25T10:33:06.055Z,92922.78
2023-07-25T10:35:52.024Z,92929.69
2023-07-25T10:38:37.988Z,92922.84
2023-07-25T10:41:15.874Z,92929.81
2023-07-25T10:43:51.471Z,92926.84
2023-07-25T10:46:24.938Z,92926.69
2023-07-25T10:48:55.926Z,92925.75
2023-07-25T10:51:24.854Z,92920.50
2023-07-25T10:54:12.653Z,92923.44
2023-07-25T10:56:42.578Z,92923.44
2023-07-25T10:59:11.280Z,92925.56
2023-07-25T11:01:49.755Z,92916.78
2023-07-25T11:04:34.455Z,92907.59
2023-07-25T11:07:13.710Z,92914.19
2023-07-25T11:09:44.577Z,92908.50
2023-07-25T11:12:14.580Z,92922.91
2023-07-25T11:14:47.219Z,92920.25
2023-07-25T11:17:16.134Z,92912.72
2023-07-25T11:19:44.874Z,92917.34
2023-07-25T11:22:14.924Z,92912.44
2023-07-25T11:24:45.187Z,92915.13
2023-07-25T11:27:15.373Z,92917.09
2023-07-25T11:29:44.269Z,92925.63
2023-07-25T11:32:13.030Z,92923.50
2023-07-25T11:34:42.499Z,92916.13
2023-07-25T11:37:14.599Z,92912.81
2023-07-25T11:39:43.367Z,92908.31
2023-07-25T11:42:12.119Z,92913.19
2023-07-25T11:44:40.685Z,92900.84
2023-07-25T11:47:09.819Z,92909.56
2023-07-25T11:49:49.523Z,92907.00
2023-07-25T11:52:20.077Z,92914.38
2023-07-25T11:54:48.800Z,92917.28
2023-07-25T11:57:17.430Z,92921.81
2023-07-25T11:59:46.033Z,92929.47
2023-07-25T12:02:15.146Z,92935.56
2023-07-25T12:04:47.950Z,92930.47
2023-07-25T12:07:16.806Z,92928.25
2023-07-25T12:09:55.645Z,92925.19
2023-07-25T12:12:24.288Z,92924.31
2023-07-25T12:15:00.812Z,92928.78
2023-07-25T12:17:45.956Z,92928.38
2023-07-25T12:20:23.772Z,92912.72
2023-07-25T12:23:07.298Z,92907.69
2023-07-25T12:25:39.086Z,92909.81
2023-07-25T12:28:07.967Z,92890.28
2023-07-25T12:30:36.607Z,92886.84
2023-07-25T12:33:05.380Z,92885.19
2023-07-25T12:35:34.925Z,92876.78
2023-07-25T12:38:04.005Z,92882.22
2023-07-25T12:40:33.001Z,92893.84
2023-07-25T12:43:01.637Z,92896.16
2023-07-25T12:45:30.325Z,92896.34
2023-07-25T12:47:59.090Z,92904.94
2023-07-25T12:50:28.002Z,92907.84
2023-07-25T12:52:56.660Z,92896.34
2023-07-25T12:55:25.525Z,92898.81
2023-07-25T12:57:54.199Z,92898.81
2023-07-25T13:00:22.846Z,92896.03
2023-07-25T13:02:51.636Z,92890.50
2023-07-25T13:05:21.318Z,92889.00
2023-07-25T13:07:50.204Z,92886.31
2023-07-25T13:10:18.339Z,92874.25
2023-07-25T13:12:46.974Z,92884.44
2023-07-25T13:15:15.637Z,92878.22
2023-07-25T13:17:44.413Z,92889.91
2023-07-25T13:20:13.035Z,92904.38
2023-07-25T13:22:41.952Z,92917.31
2023-07-25T13:25:10.605Z,92905.94
2023-07-25T13:27:39.275Z,92904.56
2023-07-25T13:30:08.712Z,92896.09
2023-07-25T13:32:37.482Z,92915.78
2023-07-25T13:35:06.802Z,92912.28
2023-07-25T13:37:35.506Z,92915.53
2023-07-25T13:40:04.311Z,92919.22
2023-07-25T13:42:34.201Z,92915.06
2023-07-25T13:45:02.799Z,92922.78
2023-07-25T13:47:31.433Z,92926.66
2023-07-25T13:50:05.164Z,92967.91
2023-07-25T13:52:33.939Z,93029.41
2023-07-25T13:55:02.516Z,93114.47
2023-07-25T13:57:33.483Z,93157.19
2023-07-25T14:00:03.390Z,93146.19
2023-07-25T14:02:32.081Z,93120.16
2023-07-25T14:05:00.817Z,93103.81
2023-07-25T14:07:29.419Z,93136.50
2023-07-25T14:09:58.159Z,93162.22
2023-07-25T14:12:27.792Z,93145.72
2023-07-25T14:14:58.803Z,93136.03
2023-07-25T14:17:28.580Z,93145.28
2023-07-25T14:19:57.296Z,93153.19
2023-07-25T14:22:26.796Z,93140.84
2023-07-25T14:24:57.589Z,93138.66
2023-07-25T14:27:27.738Z,93137.63
2023-07-25T14:29:56.437Z,93135.38
2023-07-25T14:32:26.697Z,93140.91
2023-07-25T14:34:55.642Z,93137.59
2023-07-25T14:37:25.364Z,93144.69
2023-07-25T14:39:55.053Z,93136.34
2023-07-25T14:42:23.757Z,93137.44
2023-07-25T14:44:52.363Z,93133.75
2023-07-25T14:47:21.393Z,93126.34
2023-07-25T14:49:50.133Z,93134.97
2023-07-25T14:52:18.904Z,93144.22
2023-07-25T14:54:47.542Z,93141.13
2023-07-25T14:57:19.387Z,93129.59
2023-07-25T14:59:48.050Z,93116.63
2023-07-25T15:02:18.700Z,93112.16
2023-07-25T15:04:47.612Z,93102.16
2023-07-25T15:07:16.229Z,93091.97
2023-07-25T15:09:44.957Z,93099.53
2023-07-25T15:12:13.879Z,93098.59
2023-07-25T15:14:42.583Z,93087.97
2023-07-25T15:17:24.923Z,93065.16
2023-07-25T15:20:00.726Z,93065.00
2023-07-25T15:22:30.702Z,93059.91
2023-07-25T15:24:59.996Z,93042.34
2023-07-25T15:27:30.000Z,93030.03
2023-07-25T15:29:59.426Z,93033.72
2023-07-25T15:32:28.065Z,93052.06
2023-07-25T15:34:56.832Z,93023.56
2023-07-25T15:37:25.570Z,93040.19
2023-07-25T15:39:54.260Z,93038.03
2023-07-25T15:42:22.911Z,93029.69
2023-07-25T15:44:51.511Z,93040.44
2023-07-25T15:47:20.122Z,93034.22
2023-07-25T15:49:48.757Z,93013.13
2023-07-25T15:52:17.453Z,92984.53
2023-07-25T15:54:46.141Z,92967.22
2023-07-25T15:57:14.714Z,92974.19
2023-07-25T15:59:43.399Z,92962.69
2023-07-25T16:02:12.156Z,92984.97
2023-07-25T16:04:40.858Z,92976.13
2023-07-25T16:07:09.526Z,92982.34
2023-07-25T16:09:38.876Z,92984.69
2023-07-25T16:12:10.334Z,92978.09
2023-07-25T16:14:39.045Z,92991.34
2023-07-25T16:17:07.821Z,93013.09
2023-07-25T16:19:36.492Z,93017.41
2023-07-25T16:22:05.697Z,93022.47
2023-07-25T16:24:34.391Z,93013.38
2023-07-25T16:27:03.042Z,93037.25
2023-07-25T16:29:31.821Z,93042.78
2023-07-25T16:32:01.052Z,93043.06
2023-07-25T16:34:29.708Z,93032.13
2023-07-25T16:36:58.353Z,93047.47
2023-07-25T16:39:27.028Z,93036.56
2023-07-25T16:41:58.743Z,93034.34
2023-07-25T16:44:27.448Z,93048.66
2023-07-25T16:46:56.089Z,93070.56
2023-07-25T16:49:24.718Z,93059.22
2023-07-25T16:51:53.349Z,93060.56
2023-07-25T16:54:22.127Z,93054.88
2023-07-25T16:56:50.781Z,93050.03
2023-07-25T16:59:19.381Z,93051.97
2023-07-25T17:01:48.054Z,93049.38
2023-07-25T17:04:16.792Z,93057.28
2023-07-25T17:06:45.402Z,93057.66
2023-07-25T17:09:14.082Z,93056.72
2023-07-25T17:11:44.824Z,93054.72
2023-07-25T17:14:13.464Z,93054.88
2023-07-25T17:16:41.940Z,93044.16
2023-07-25T17:19:10.595Z,93040.75
2023-07-25T17:21:41.376Z,93031.19
2023-07-25T17:24:10.752Z,93033.22
2023-07-25T17:26:39.723Z,93035.00
2023-07-25T17:29:08.389Z,93037.84
2023-07-25T17:31:37.212Z,93036.97
2023-07-25T17:34:06.163Z,93043.13
2023-07-25T17:36:34.773Z,93043.09
2023-07-25T17:39:03.933Z,93035.88
2023-07-25T17:41:33.253Z,93028.78
2023-07-25T17:44:02.067Z,93030.88
2023-07-25T17:46:30.716Z,93034.41
2023-07-25T17:49:01.324Z,93032.41
2023-07-25T17:51:30.422Z,93030.63
2023-07-25T17:53:59.334Z,93027.47
2023-07-25T17:56:28.053Z,93040.44
2023-07-25T17:58:56.682Z,93042.78
2023-07-25T18:01:25.432Z,93042.66
2023-07-25T18:03:54.138Z,93050.22
2023-07-25T18:06:22.721Z,93053.06
2023-07-25T18:08:51.560Z,93051.88
2023-07-25T18:11:20.199Z,93050.84
2023-07-25T18:13:48.866Z,93062.81
2023-07-25T18:16:17.481Z,93061.09
2023-07-25T18:18:46.160Z,93077.34
2023-07-25T18:21:15.277Z,93076.06
2023-07-25T18:23:43.904Z,93088.53
2023-07-25T18:26:12.964Z,93087.41
2023-07-25T18:28:41.596Z,93089.78
2023-07-25T18:31:10.965Z,93090.44
2023-07-25T18:33:41.045Z,93098.13
2023-07-25T18:36:09.758Z,93112.84
2023-07-25T18:38:38.507Z,93118.25
2023-07-25T18:41:07.214Z,93119.50
2023-07-25T18:43:35.895Z,93123.53
2023-07-25T18:46:04.497Z,93114.69
2023-07-25T18:48:33.228Z,93121.13
2023-07-25T18:51:03.184Z,93129.94
2023-07-25T18:53:31.857Z,93129.94
2023-07-25T18:56:00.698Z,93119.66
2023-07-25T18:58:31.021Z,93126.81
2023-07-25T19:00:59.813Z,93125.38
2023-07-25T19:03:30.143Z,93114.06
2023-07-25T19:05:59.078Z,93128.59
2023-07-25T19:08:27.832Z,93129.97
2023-07-25T19:10:56.567Z,93142.13
2023-07-25T19:13:25.146Z,93140.34
2023-07-25T19:15:53.886Z,93139.97
2023-07-25T19:18:22.561Z,93143.09
2023-07-25T19:20:51.671Z,93153.06
2023-07-25T19:23:26.500Z,93143.31
2023-07-25T19:26:02.796Z,93151.69
2023-07-25T19:28:31.626Z,93156.53
2023-07-25T19:31:01.065Z,93172.66
2023-07-25T19:33:32.367Z,93160.75
2023-07-25T19:36:01.905Z,93173.91
2023-07-25T19:38:30.965Z,93171.81
2023-07-25T19:40:59.930Z,93180.19
2023-07-25T19:43:28.581Z,93181.13
2023-07-25T19:46:04.013Z,93183.66
2023-07-25T19:48:32.792Z,93196.94
2023-07-25T19:51:01.458Z,93196.53
2023-07-25T19:53:30.015Z,93202.34
2023-07-25T19:55:58.818Z,93215.97
2023-07-25T19:58:27.447Z,93213.47
2023-07-25T20:00:56.336Z,93220.81
2023-07-25T20:03:25.148Z,93233.56
2023-07-25T20:05:53.851Z,93235.66
2023-07-25T20:08:22.426Z,93241.81
2023-07-25T20:10:51.036Z,93246.31
2023-07-25T20:13:19.807Z,93256.53
2023-07-25T20:15:48.578Z,93258.63
2023-07-25T20:18:17.279Z,93266.53
2023-07-25T20:20:46.000Z,93268.16
2023-07-25T20:23:14.863Z,93269.06
2023-07-25T20:25:43.504Z,93282.56
2023-07-25T20:28:12.100Z,93277.06
2023-07-25T20:30:40.700Z,93283.81
2023-07-25T20:33:09.215Z,93280.69
2023-07-25T20:35:38.413Z,93279.94
2023-07-25T20:38:06.988Z,93280.25
2023-07-25T20:40:36.490Z,93283.00
2023-07-25T20:43:05.182Z,93294.84
2023-07-25T20:45:37.390Z,93287.19
2023-07-25T20:48:06.775Z,93277.31
2023-07-25T20:50:35.239Z,93290.53
2023-07-25T20:53:07.191Z,93293.19
2023-07-25T20:55:36.106Z,93296.78
2023-07-25T20:58:04.798Z,93301.75
2023-07-25T21:00:33.528Z,93296.34
2023-07-25T21:03:02.161Z,93297.91
2023-07-25T21:05:30.862Z,93303.66
2023-07-25T21:07:59.518Z,93292.63
2023-07-25T21:10:28.285Z,93290.72
2023-07-25T21:12:56.928Z,93294.81
2023-07-25T21:15:25.540Z,93297.56
2023-07-25T21:18:06.680Z,93291.34
2023-07-25T21:20:40.195Z,93286.19
2023-07-25T21:23:08.865Z,93281.22
2023-07-25T21:25:39.672Z,93293.09
2023-07-25T21:28:08.362Z,93288.06
2023-07-25T21:30:37.042Z,93282.47
2023-07-25T21:33:06.046Z,93298.91
2023-07-25T21:35:34.826Z,93303.63
2023-07-25T21:38:03.510Z,93295.00
2023-07-25T21:40:32.256Z,93299.22
2023-07-25T21:43:00.945Z,93290.97
2023-07-25T21:45:29.620Z,93291.41
2023-07-25T21:47:58.252Z,93283.75
2023-07-25T21:50:26.950Z,93286.41
2023-07-25T21:52:55.744Z,93277.41
2023-07-25T21:55:24.428Z,93287.41
2023-07-25T21:57:53.042Z,93274.66
2023-07-25T22:00:21.739Z,93276.41
2023-07-25T22:02:50.432Z,93287.88
2023-07-25T22:05:19.020Z,93288.06
2023-07-25T22:07:48.695Z,93293.00
2023-07-25T22:10:17.568Z,93294.13
2023-07-25T22:12:49.171Z,93302.59
2023-07-25T22:15:18.112Z,93290.47
2023-07-25T22:17:46.750Z,93289.38
2023-07-25T22:20:15.494Z,93300.00
2023-07-25T22:22:44.230Z,93300.63
2023-07-25T22:25:13.119Z,93294.41
2023-07-25T22:27:41.589Z,93304.53
2023-07-25T22:30:10.607Z,93302.25
2023-07-25T22:32:39.372Z,93310.56
2023-07-25T22:35:09.502Z,93304.16
2023-07-25T22:37:38.225Z,93310.16
2023-07-25T22:40:07.548Z,93303.22
2023-07-25T22:42:36.108Z,93301.16
2023-07-25T22:45:04.758Z,93304.47
2023-07-25T22:47:33.460Z,93307.50
2023-07-25T22:50:02.126Z,93304.13
2023-07-25T22:52:30.807Z,93301.22
2023-07-25T22:54:59.471Z,93301.03
2023-07-25T22:57:28.111Z,93293.97
2023-07-25T22:59:56.752Z,93291.84
2023-07-25T23:02:25.489Z,93297.25
2023-07-25T23:04:54.092Z,93304.19
2023-07-25T23:07:22.711Z,93314.19
2023-07-25T23:09:52.668Z,93303.22
2023-07-25T23:12:23.574Z,93306.94
2023-07-25T23:14:52.852Z,93311.06
2023-07-25T23:17:21.367Z,93307.25
2023-07-25T23:19:49.990Z,93318.09
2023-07-25T23:22:18.666Z,93318.94
2023-07-25T23:24:47.371Z,93308.09
2023-07-25T23:27:16.067Z,93317.06
2023-07-25T23:29:44.928Z,93311.25
2023-07-25T23:32:13.531Z,93315.47
2023-07-25T23:34:50.515Z,93311.34
2023-07-25T23:37:19.418Z,93311.50
2023-07-25T23:39:47.351Z,93306.34
2023-07-25T23:42:17.418Z,93311.28
2023-07-25T23:44:46.045Z,93318.88
2023-07-25T23:47:14.724Z,93318.44
2023-07-25T23:49:43.542Z,93320.59
2023-07-25T23:52:12.204Z,93317.34
2023-07-25T23:54:40.895Z,93325.22
2023-07-25T23:57:09.786Z,93319.19
2023-07-25T23:59:38.824Z,93313.19
